sensor_id;sensor_type;location;lat;lon;timestamp;P1;durP1;ratioP1;P2;durP2;ratioP2
50104;SDS011;47690;39.202;-77.198;2023-12-07T00:02:46;1.52;;;1.42;;
50104;SDS011;47690;39.202;-77.198;2023-12-07T00:05:51;1.50;;;1.40;;
50104;SDS011;47690;39.202;-77.198;2023-12-07T00:08:45;1.60;;;1.50;;
50104;SDS011;47690;39.202;-77.198;2023-12-07T00:11:45;1.70;;;1.60;;
50104;SDS011;47690;39.202;-77.198;2023-12-07T00:18:39;1.75;;;1.65;;
50104;SDS011;47690;39.202;-77.198;2023-12-07T00:21:14;1.52;;;1.42;;
50104;SDS011;47690;39.202;-77.198;2023-12-07T00:24:01;1.65;;;1.55;;
50104;SDS011;47690;39.202;-77.198;2023-12-07T00:26:33;1.77;;;1.67;;
50104;SDS011;47690;39.202;-77.198;2023-12-07T00:29:14;1.92;;;1.80;;
50104;SDS011;47690;39.202;-77.198;2023-12-07T00:32:01;1.70;;;1.60;;
50104;SDS011;47690;39.202;-77.198;2023-12-07T00:34:38;1.92;;;1.80;;
50104;SDS011;47690;39.202;-77.198;2023-12-07T00:37:26;1.50;;;1.40;;
50104;SDS011;47690;39.202;-77.198;2023-12-07T00:40:08;1.50;;;1.40;;
50104;SDS011;47690;39.202;-77.198;2023-12-07T00:42:40;1.60;;;1.50;;
50104;SDS011;47690;39.202;-77.198;2023-12-07T00:45:11;1.75;;;1.65;;
50104;SDS011;47690;39.202;-77.198;2023-12-07T00:47:46;1.90;;;1.70;;
50104;SDS011;47690;39.202;-77.198;2023-12-07T00:50:29;1.70;;;1.60;;
50104;SDS011;47690;39.202;-77.198;2023-12-07T00:53:50;1.77;;;1.67;;
50104;SDS011;47690;39.202;-77.198;2023-12-07T00:56:40;1.65;;;1.55;;
50104;SDS011;47690;39.202;-77.198;2023-12-07T00:59:15;1.80;;;1.70;;
50104;SDS011;47690;39.202;-77.198;2023-12-07T01:02:29;1.60;;;1.50;;
50104;SDS011;47690;39.202;-77.198;2023-12-07T01:05:52;2.00;;;1.80;;
50104;SDS011;47690;39.202;-77.198;2023-12-07T01:08:55;2.50;;;2.00;;
50104;SDS011;47690;39.202;-77.198;2023-12-07T01:11:49;2.47;;;1.85;;
50104;SDS011;47690;39.202;-77.198;2023-12-07T01:14:49;2.50;;;2.00;;
50104;SDS011;47690;39.202;-77.198;2023-12-07T01:17:43;1.90;;;1.80;;
50104;SDS011;47690;39.202;-77.198;2023-12-07T01:20:31;1.95;;;1.70;;
50104;SDS011;47690;39.202;-77.198;2023-12-07T01:23:35;2.10;;;1.90;;
50104;SDS011;47690;39.202;-77.198;2023-12-07T01:26:15;1.80;;;1.70;;
50104;SDS011;47690;39.202;-77.198;2023-12-07T01:28:54;2.63;;;2.10;;
50104;SDS011;47690;39.202;-77.198;2023-12-07T01:31:38;1.92;;;1.75;;
50104;SDS011;47690;39.202;-77.198;2023-12-07T01:34:22;2.00;;;1.80;;
50104;SDS011;47690;39.202;-77.198;2023-12-07T01:36:58;1.90;;;1.70;;
50104;SDS011;47690;39.202;-77.198;2023-12-07T01:39:41;1.90;;;1.70;;
50104;SDS011;47690;39.202;-77.198;2023-12-07T01:43:35;1.80;;;1.70;;
50104;SDS011;47690;39.202;-77.198;2023-12-07T01:46:05;2.10;;;1.90;;
50104;SDS011;47690;39.202;-77.198;2023-12-07T01:48:59;2.05;;;1.85;;
50104;SDS011;47690;39.202;-77.198;2023-12-07T01:52:12;1.60;;;1.50;;
50104;SDS011;47690;39.202;-77.198;2023-12-07T01:55:12;2.10;;;1.90;;
50104;SDS011;47690;39.202;-77.198;2023-12-07T01:57:59;1.80;;;1.65;;
50104;SDS011;47690;39.202;-77.198;2023-12-07T02:00:33;2.00;;;1.80;;
50104;SDS011;47690;39.202;-77.198;2023-12-07T02:03:05;1.92;;;1.80;;
50104;SDS011;47690;39.202;-77.198;2023-12-07T02:05:48;2.40;;;1.90;;
50104;SDS011;47690;39.202;-77.198;2023-12-07T02:08:17;2.70;;;2.00;;
50104;SDS011;47690;39.202;-77.198;2023-12-07T02:10:46;2.25;;;2.05;;
50104;SDS011;47690;39.202;-77.198;2023-12-07T02:13:25;2.10;;;1.90;;
50104;SDS011;47690;39.202;-77.198;2023-12-07T02:15:57;2.30;;;2.10;;
50104;SDS011;47690;39.202;-77.198;2023-12-07T02:18:40;2.00;;;1.77;;
50104;SDS011;47690;39.202;-77.198;2023-12-07T02:21:34;2.70;;;2.10;;
50104;SDS011;47690;39.202;-77.198;2023-12-07T02:24:19;2.05;;;1.85;;
50104;SDS011;47690;39.202;-77.198;2023-12-07T02:27:05;2.40;;;2.20;;
50104;SDS011;47690;39.202;-77.198;2023-12-07T02:40:48;2.28;;;2.00;;
50104;SDS011;47690;39.202;-77.198;2023-12-07T02:45:31;1.90;;;1.80;;
50104;SDS011;47690;39.202;-77.198;2023-12-07T02:49:00;2.20;;;2.00;;
50104;SDS011;47690;39.202;-77.198;2023-12-07T02:52:43;2.00;;;1.80;;
50104;SDS011;47690;39.202;-77.198;2023-12-07T02:56:47;2.10;;;1.90;;
50104;SDS011;47690;39.202;-77.198;2023-12-07T03:00:41;2.22;;;2.03;;
50104;SDS011;47690;39.202;-77.198;2023-12-07T03:03:55;2.20;;;2.00;;
50104;SDS011;47690;39.202;-77.198;2023-12-07T03:07:49;2.20;;;2.00;;
50104;SDS011;47690;39.202;-77.198;2023-12-07T03:14:27;2.10;;;1.90;;
50104;SDS011;47690;39.202;-77.198;2023-12-07T03:17:55;2.30;;;2.10;;
50104;SDS011;47690;39.202;-77.198;2023-12-07T03:36:34;2.60;;;2.20;;
50104;SDS011;47690;39.202;-77.198;2023-12-07T03:44:52;2.55;;;2.13;;
50104;SDS011;47690;39.202;-77.198;2023-12-07T03:47:52;2.35;;;2.10;;
50104;SDS011;47690;39.202;-77.198;2023-12-07T03:50:59;2.75;;;2.22;;
50104;SDS011;47690;39.202;-77.198;2023-12-07T03:54:00;2.63;;;2.00;;
50104;SDS011;47690;39.202;-77.198;2023-12-07T03:56:40;2.20;;;2.00;;
50104;SDS011;47690;39.202;-77.198;2023-12-07T04:00:11;2.38;;;2.00;;
50104;SDS011;47690;39.202;-77.198;2023-12-07T04:03:57;2.40;;;2.20;;
50104;SDS011;47690;39.202;-77.198;2023-12-07T04:07:28;2.33;;;2.00;;
50104;SDS011;47690;39.202;-77.198;2023-12-07T04:19:16;2.13;;;1.92;;
50104;SDS011;47690;39.202;-77.198;2023-12-07T04:27:08;2.20;;;2.00;;
50104;SDS011;47690;39.202;-77.198;2023-12-07T04:29:44;2.30;;;2.00;;
50104;SDS011;47690;39.202;-77.198;2023-12-07T04:32:19;2.10;;;1.90;;
50104;SDS011;47690;39.202;-77.198;2023-12-07T04:34:51;2.13;;;1.90;;
50104;SDS011;47690;39.202;-77.198;2023-12-07T04:37:28;2.50;;;2.28;;
50104;SDS011;47690;39.202;-77.198;2023-12-07T04:39:57;2.35;;;2.00;;
50104;SDS011;47690;39.202;-77.198;2023-12-07T04:42:27;2.20;;;2.00;;
50104;SDS011;47690;39.202;-77.198;2023-12-07T04:44:59;2.17;;;1.98;;
50104;SDS011;47690;39.202;-77.198;2023-12-07T04:48:15;2.22;;;2.03;;
50104;SDS011;47690;39.202;-77.198;2023-12-07T04:50:51;2.25;;;2.00;;
50104;SDS011;47690;39.202;-77.198;2023-12-07T04:53:28;3.08;;;2.15;;
50104;SDS011;47690;39.202;-77.198;2023-12-07T04:56:15;2.25;;;2.05;;
50104;SDS011;47690;39.202;-77.198;2023-12-07T04:59:32;2.10;;;1.90;;
50104;SDS011;47690;39.202;-77.198;2023-12-07T05:06:47;1.92;;;1.75;;
50104;SDS011;47690;39.202;-77.198;2023-12-07T05:10:37;2.10;;;1.90;;
50104;SDS011;47690;39.202;-77.198;2023-12-07T05:13:25;2.38;;;2.10;;
50104;SDS011;47690;39.202;-77.198;2023-12-07T05:16:48;2.22;;;2.00;;
50104;SDS011;47690;39.202;-77.198;2023-12-07T05:20:48;2.10;;;1.90;;
50104;SDS011;47690;39.202;-77.198;2023-12-07T05:24:17;2.13;;;1.90;;
50104;SDS011;47690;39.202;-77.198;2023-12-07T05:27:44;2.70;;;2.17;;
50104;SDS011;47690;39.202;-77.198;2023-12-07T05:30:28;2.58;;;2.08;;
50104;SDS011;47690;39.202;-77.198;2023-12-07T05:33:18;2.55;;;2.33;;
50104;SDS011;47690;39.202;-77.198;2023-12-07T05:36:40;2.28;;;2.08;;
50104;SDS011;47690;39.202;-77.198;2023-12-07T05:40:41;2.33;;;2.10;;
50104;SDS011;47690;39.202;-77.198;2023-12-07T05:43:41;2.70;;;2.25;;
50104;SDS011;47690;39.202;-77.198;2023-12-07T05:46:57;2.35;;;2.15;;
50104;SDS011;47690;39.202;-77.198;2023-12-07T05:49:43;2.28;;;2.05;;
50104;SDS011;47690;39.202;-77.198;2023-12-07T05:52:50;2.10;;;1.90;;
50104;SDS011;47690;39.202;-77.198;2023-12-07T05:56:04;2.40;;;1.90;;
50104;SDS011;47690;39.202;-77.198;2023-12-07T06:02:43;2.40;;;2.05;;
50104;SDS011;47690;39.202;-77.198;2023-12-07T06:09:35;2.65;;;2.03;;
50104;SDS011;47690;39.202;-77.198;2023-12-07T06:12:22;2.35;;;2.03;;
50104;SDS011;47690;39.202;-77.198;2023-12-07T06:15:31;2.60;;;2.20;;
50104;SDS011;47690;39.202;-77.198;2023-12-07T06:18:56;2.45;;;2.13;;
50104;SDS011;47690;39.202;-77.198;2023-12-07T06:21:34;2.88;;;2.30;;
50104;SDS011;47690;39.202;-77.198;2023-12-07T06:24:34;2.70;;;2.45;;
50104;SDS011;47690;39.202;-77.198;2023-12-07T06:27:44;3.13;;;2.38;;
50104;SDS011;47690;39.202;-77.198;2023-12-07T06:30:17;2.83;;;2.40;;
50104;SDS011;47690;39.202;-77.198;2023-12-07T06:33:02;2.80;;;2.38;;
50104;SDS011;47690;39.202;-77.198;2023-12-07T06:35:39;3.13;;;2.40;;
50104;SDS011;47690;39.202;-77.198;2023-12-07T06:42:51;2.95;;;2.33;;
50104;SDS011;47690;39.202;-77.198;2023-12-07T06:46:13;2.30;;;2.10;;
50104;SDS011;47690;39.202;-77.198;2023-12-07T06:49:14;2.65;;;2.13;;
50104;SDS011;47690;39.202;-77.198;2023-12-07T06:52:45;2.33;;;2.10;;
50104;SDS011;47690;39.202;-77.198;2023-12-07T06:56:28;2.13;;;1.90;;
50104;SDS011;47690;39.202;-77.198;2023-12-07T06:58:45;2.45;;;2.00;;
50104;SDS011;47690;39.202;-77.198;2023-12-07T07:01:26;2.42;;;2.22;;
50104;SDS011;47690;39.202;-77.198;2023-12-07T07:08:08;3.15;;;2.20;;
50104;SDS011;47690;39.202;-77.198;2023-12-07T07:10:40;2.17;;;1.90;;
50104;SDS011;47690;39.202;-77.198;2023-12-07T07:13:13;3.05;;;2.20;;
50104;SDS011;47690;39.202;-77.198;2023-12-07T07:16:08;2.78;;;2.13;;
50104;SDS011;47690;39.202;-77.198;2023-12-07T07:19:15;2.22;;;1.92;;
50104;SDS011;47690;39.202;-77.198;2023-12-07T07:22:41;2.55;;;2.22;;
50104;SDS011;47690;39.202;-77.198;2023-12-07T07:25:58;2.83;;;2.20;;
50104;SDS011;47690;39.202;-77.198;2023-12-07T07:29:18;2.50;;;2.10;;
50104;SDS011;47690;39.202;-77.198;2023-12-07T07:32:11;2.50;;;2.30;;
50104;SDS011;47690;39.202;-77.198;2023-12-07T07:35:16;2.70;;;2.33;;
50104;SDS011;47690;39.202;-77.198;2023-12-07T07:38:05;2.53;;;2.10;;
50104;SDS011;47690;39.202;-77.198;2023-12-07T07:41:25;2.20;;;2.00;;
50104;SDS011;47690;39.202;-77.198;2023-12-07T07:44:37;3.17;;;2.22;;
50104;SDS011;47690;39.202;-77.198;2023-12-07T07:47:42;2.42;;;2.05;;
50104;SDS011;47690;39.202;-77.198;2023-12-07T07:50:45;2.72;;;2.08;;
50104;SDS011;47690;39.202;-77.198;2023-12-07T07:57:27;3.20;;;2.30;;
50104;SDS011;47690;39.202;-77.198;2023-12-07T08:01:04;3.00;;;2.35;;
50104;SDS011;47690;39.202;-77.198;2023-12-07T08:04:04;4.70;;;2.60;;
50104;SDS011;47690;39.202;-77.198;2023-12-07T08:07:00;3.60;;;2.50;;
50104;SDS011;47690;39.202;-77.198;2023-12-07T08:10:08;4.03;;;2.80;;
50104;SDS011;47690;39.202;-77.198;2023-12-07T08:13:05;4.18;;;2.60;;
50104;SDS011;47690;39.202;-77.198;2023-12-07T08:15:47;3.88;;;2.50;;
50104;SDS011;47690;39.202;-77.198;2023-12-07T08:22:00;3.25;;;2.40;;
50104;SDS011;47690;39.202;-77.198;2023-12-07T08:24:44;3.58;;;2.30;;
50104;SDS011;47690;39.202;-77.198;2023-12-07T08:28:15;2.72;;;2.05;;
50104;SDS011;47690;39.202;-77.198;2023-12-07T08:31:02;4.18;;;2.50;;
50104;SDS011;47690;39.202;-77.198;2023-12-07T08:34:28;2.55;;;2.10;;
50104;SDS011;47690;39.202;-77.198;2023-12-07T08:37:03;3.45;;;2.28;;
50104;SDS011;47690;39.202;-77.198;2023-12-07T08:39:57;2.80;;;2.25;;
50104;SDS011;47690;39.202;-77.198;2023-12-07T08:43:12;3.70;;;2.30;;
50104;SDS011;47690;39.202;-77.198;2023-12-07T08:45:45;2.67;;;2.20;;
50104;SDS011;47690;39.202;-77.198;2023-12-07T08:48:33;3.22;;;2.35;;
50104;SDS011;47690;39.202;-77.198;2023-12-07T08:51:43;2.65;;;2.25;;
50104;SDS011;47690;39.202;-77.198;2023-12-07T08:55:20;2.88;;;2.40;;
50104;SDS011;47690;39.202;-77.198;2023-12-07T08:59:04;3.15;;;2.20;;
50104;SDS011;47690;39.202;-77.198;2023-12-07T09:05:46;3.13;;;2.20;;
50104;SDS011;47690;39.202;-77.198;2023-12-07T09:09:16;2.65;;;1.92;;
50104;SDS011;47690;39.202;-77.198;2023-12-07T09:13:04;3.13;;;2.10;;
50104;SDS011;47690;39.202;-77.198;2023-12-07T09:16:26;2.50;;;2.10;;
50104;SDS011;47690;39.202;-77.198;2023-12-07T09:19:26;2.47;;;2.00;;
50104;SDS011;47690;39.202;-77.198;2023-12-07T09:34:35;2.10;;;1.90;;
50104;SDS011;47690;39.202;-77.198;2023-12-07T09:37:55;2.55;;;2.10;;
50104;SDS011;47690;39.202;-77.198;2023-12-07T09:41:30;2.67;;;2.15;;
50104;SDS011;47690;39.202;-77.198;2023-12-07T09:45:54;2.13;;;1.73;;
50104;SDS011;47690;39.202;-77.198;2023-12-07T09:48:59;2.10;;;1.90;;
50104;SDS011;47690;39.202;-77.198;2023-12-07T09:51:46;2.47;;;2.10;;
50104;SDS011;47690;39.202;-77.198;2023-12-07T09:54:50;2.83;;;2.13;;
50104;SDS011;47690;39.202;-77.198;2023-12-07T09:57:36;2.10;;;1.90;;
50104;SDS011;47690;39.202;-77.198;2023-12-07T10:00:08;2.70;;;2.05;;
50104;SDS011;47690;39.202;-77.198;2023-12-07T10:02:50;2.13;;;1.90;;
50104;SDS011;47690;39.202;-77.198;2023-12-07T10:10:12;2.50;;;2.10;;
50104;SDS011;47690;39.202;-77.198;2023-12-07T10:14:26;2.47;;;1.73;;
50104;SDS011;47690;39.202;-77.198;2023-12-07T10:21:41;2.50;;;2.30;;
50104;SDS011;47690;39.202;-77.198;2023-12-07T10:25:11;2.70;;;2.20;;
50104;SDS011;47690;39.202;-77.198;2023-12-07T10:27:48;2.40;;;2.20;;
50104;SDS011;47690;39.202;-77.198;2023-12-07T10:34:55;2.03;;;1.83;;
50104;SDS011;47690;39.202;-77.198;2023-12-07T10:38:41;2.33;;;2.00;;
50104;SDS011;47690;39.202;-77.198;2023-12-07T10:45:12;2.20;;;2.00;;
50104;SDS011;47690;39.202;-77.198;2023-12-07T10:57:44;3.08;;;2.00;;
50104;SDS011;47690;39.202;-77.198;2023-12-07T11:01:25;2.08;;;1.88;;
50104;SDS011;47690;39.202;-77.198;2023-12-07T11:09:32;4.13;;;2.42;;
50104;SDS011;47690;39.202;-77.198;2023-12-07T11:17:32;2.35;;;2.10;;
50104;SDS011;47690;39.202;-77.198;2023-12-07T11:21:39;2.00;;;1.80;;
50104;SDS011;47690;39.202;-77.198;2023-12-07T11:25:22;2.00;;;1.83;;
50104;SDS011;47690;39.202;-77.198;2023-12-07T11:29:13;2.28;;;1.90;;
50104;SDS011;47690;39.202;-77.198;2023-12-07T11:32:39;3.05;;;2.03;;
50104;SDS011;47690;39.202;-77.198;2023-12-07T11:37:07;2.80;;;2.05;;
50104;SDS011;47690;39.202;-77.198;2023-12-07T11:43:05;2.33;;;1.90;;
50104;SDS011;47690;39.202;-77.198;2023-12-07T11:47:04;2.85;;;2.10;;
50104;SDS011;47690;39.202;-77.198;2023-12-07T11:57:10;2.85;;;2.00;;
50104;SDS011;47690;39.202;-77.198;2023-12-07T12:00:50;2.30;;;1.98;;
50104;SDS011;47690;39.202;-77.198;2023-12-07T12:03:42;2.20;;;1.85;;
50104;SDS011;47690;39.202;-77.198;2023-12-07T12:06:39;2.47;;;2.10;;
50104;SDS011;47690;39.202;-77.198;2023-12-07T12:09:42;2.83;;;2.15;;
50104;SDS011;47690;39.202;-77.198;2023-12-07T12:12:53;4.72;;;2.00;;
50104;SDS011;47690;39.202;-77.198;2023-12-07T12:16:04;2.03;;;1.83;;
50104;SDS011;47690;39.202;-77.198;2023-12-07T12:19:30;2.13;;;1.88;;
50104;SDS011;47690;39.202;-77.198;2023-12-07T12:23:36;2.10;;;1.90;;
50104;SDS011;47690;39.202;-77.198;2023-12-07T12:31:04;2.25;;;1.90;;
50104;SDS011;47690;39.202;-77.198;2023-12-07T12:39:02;1.98;;;1.80;;
50104;SDS011;47690;39.202;-77.198;2023-12-07T12:42:02;1.70;;;1.60;;
50104;SDS011;47690;39.202;-77.198;2023-12-07T12:44:46;2.80;;;1.98;;
50104;SDS011;47690;39.202;-77.198;2023-12-07T12:47:57;3.00;;;1.80;;
50104;SDS011;47690;39.202;-77.198;2023-12-07T12:50:48;2.47;;;2.00;;
50104;SDS011;47690;39.202;-77.198;2023-12-07T12:53:56;2.00;;;1.73;;
50104;SDS011;47690;39.202;-77.198;2023-12-07T12:57:14;2.05;;;1.80;;
50104;SDS011;47690;39.202;-77.198;2023-12-07T13:00:05;2.17;;;1.90;;
50104;SDS011;47690;39.202;-77.198;2023-12-07T13:03:07;2.17;;;1.70;;
50104;SDS011;47690;39.202;-77.198;2023-12-07T13:07:04;2.55;;;1.92;;
50104;SDS011;47690;39.202;-77.198;2023-12-07T13:10:06;1.95;;;1.83;;
50104;SDS011;47690;39.202;-77.198;2023-12-07T13:13:50;2.55;;;1.90;;
50104;SDS011;47690;39.202;-77.198;2023-12-07T13:16:45;2.17;;;1.80;;
50104;SDS011;47690;39.202;-77.198;2023-12-07T13:19:58;2.10;;;1.90;;
50104;SDS011;47690;39.202;-77.198;2023-12-07T13:23:21;2.10;;;1.90;;
50104;SDS011;47690;39.202;-77.198;2023-12-07T13:30:38;2.10;;;1.90;;
50104;SDS011;47690;39.202;-77.198;2023-12-07T13:37:33;2.47;;;1.90;;
50104;SDS011;47690;39.202;-77.198;2023-12-07T13:40:41;2.15;;;1.95;;
50104;SDS011;47690;39.202;-77.198;2023-12-07T13:43:39;2.13;;;1.92;;
50104;SDS011;47690;39.202;-77.198;2023-12-07T13:46:16;2.65;;;2.20;;
50104;SDS011;47690;39.202;-77.198;2023-12-07T13:49:11;2.40;;;2.20;;
50104;SDS011;47690;39.202;-77.198;2023-12-07T13:52:25;3.38;;;2.10;;
50104;SDS011;47690;39.202;-77.198;2023-12-07T13:55:18;2.08;;;1.83;;
50104;SDS011;47690;39.202;-77.198;2023-12-07T13:58:28;2.10;;;2.00;;
50104;SDS011;47690;39.202;-77.198;2023-12-07T14:01:24;2.47;;;2.20;;
50104;SDS011;47690;39.202;-77.198;2023-12-07T14:14:37;2.00;;;1.80;;
50104;SDS011;47690;39.202;-77.198;2023-12-07T14:19:47;2.25;;;2.00;;
50104;SDS011;47690;39.202;-77.198;2023-12-07T14:22:19;2.20;;;2.00;;
50104;SDS011;47690;39.202;-77.198;2023-12-07T14:24:57;2.20;;;2.00;;
50104;SDS011;47690;39.202;-77.198;2023-12-07T14:28:18;2.58;;;2.08;;
50104;SDS011;47690;39.202;-77.198;2023-12-07T14:31:02;2.20;;;2.00;;
50104;SDS011;47690;39.202;-77.198;2023-12-07T14:33:46;2.17;;;1.98;;
50104;SDS011;47690;39.202;-77.198;2023-12-07T14:39:56;2.13;;;1.83;;
50104;SDS011;47690;39.202;-77.198;2023-12-07T14:42:35;2.30;;;2.10;;
50104;SDS011;47690;39.202;-77.198;2023-12-07T14:45:56;2.35;;;2.00;;
50104;SDS011;47690;39.202;-77.198;2023-12-07T14:48:41;3.05;;;2.05;;
50104;SDS011;47690;39.202;-77.198;2023-12-07T14:58:02;2.30;;;2.10;;
50104;SDS011;47690;39.202;-77.198;2023-12-07T15:01:20;2.47;;;2.20;;
50104;SDS011;47690;39.202;-77.198;2023-12-07T15:03:50;2.67;;;2.20;;
50104;SDS011;47690;39.202;-77.198;2023-12-07T15:10:10;2.30;;;1.85;;
50104;SDS011;47690;39.202;-77.198;2023-12-07T15:12:59;2.95;;;2.25;;
50104;SDS011;47690;39.202;-77.198;2023-12-07T15:15:47;2.55;;;1.90;;
50104;SDS011;47690;39.202;-77.198;2023-12-07T15:18:39;2.28;;;1.90;;
50104;SDS011;47690;39.202;-77.198;2023-12-07T15:21:41;2.20;;;1.90;;
50104;SDS011;47690;39.202;-77.198;2023-12-07T15:24:09;1.90;;;1.80;;
50104;SDS011;47690;39.202;-77.198;2023-12-07T15:26:56;2.97;;;2.25;;
50104;SDS011;47690;39.202;-77.198;2023-12-07T15:29:42;2.33;;;2.03;;
50104;SDS011;47690;39.202;-77.198;2023-12-07T15:32:31;2.78;;;2.20;;
50104;SDS011;47690;39.202;-77.198;2023-12-07T15:35:38;2.30;;;2.10;;
50104;SDS011;47690;39.202;-77.198;2023-12-07T15:38:36;2.47;;;2.25;;
50104;SDS011;47690;39.202;-77.198;2023-12-07T15:41:41;3.92;;;2.33;;
50104;SDS011;47690;39.202;-77.198;2023-12-07T15:44:14;2.70;;;2.40;;
50104;SDS011;47690;39.202;-77.198;2023-12-07T15:47:15;2.45;;;2.10;;
50104;SDS011;47690;39.202;-77.198;2023-12-07T15:50:42;2.38;;;2.15;;
50104;SDS011;47690;39.202;-77.198;2023-12-07T15:53:55;2.60;;;2.20;;
50104;SDS011;47690;39.202;-77.198;2023-12-07T15:56:32;2.97;;;2.35;;
50104;SDS011;47690;39.202;-77.198;2023-12-07T16:00:07;2.38;;;2.00;;
50104;SDS011;47690;39.202;-77.198;2023-12-07T16:03:24;2.92;;;2.30;;
50104;SDS011;47690;39.202;-77.198;2023-12-07T16:06:25;2.70;;;2.38;;
50104;SDS011;47690;39.202;-77.198;2023-12-07T16:08:59;2.30;;;2.10;;
50104;SDS011;47690;39.202;-77.198;2023-12-07T16:11:41;2.42;;;2.22;;
50104;SDS011;47690;39.202;-77.198;2023-12-07T16:14:19;2.30;;;2.10;;
50104;SDS011;47690;39.202;-77.198;2023-12-07T16:17:01;2.92;;;2.38;;
50104;SDS011;47690;39.202;-77.198;2023-12-07T16:23:19;2.78;;;2.13;;
50104;SDS011;47690;39.202;-77.198;2023-12-07T16:26:23;3.40;;;2.30;;
50104;SDS011;47690;39.202;-77.198;2023-12-07T16:29:28;2.80;;;2.30;;
50104;SDS011;47690;39.202;-77.198;2023-12-07T16:32:24;2.50;;;2.15;;
50104;SDS011;47690;39.202;-77.198;2023-12-07T16:35:02;2.40;;;2.10;;
50104;SDS011;47690;39.202;-77.198;2023-12-07T16:38:40;2.83;;;2.40;;
50104;SDS011;47690;39.202;-77.198;2023-12-07T16:41:40;3.25;;;2.58;;
50104;SDS011;47690;39.202;-77.198;2023-12-07T16:45:09;2.42;;;2.20;;
50104;SDS011;47690;39.202;-77.198;2023-12-07T16:48:57;3.78;;;2.20;;
50104;SDS011;47690;39.202;-77.198;2023-12-07T16:52:24;2.25;;;1.90;;
50104;SDS011;47690;39.202;-77.198;2023-12-07T16:55:34;3.25;;;2.40;;
50104;SDS011;47690;39.202;-77.198;2023-12-07T16:59:35;2.47;;;2.17;;
50104;SDS011;47690;39.202;-77.198;2023-12-07T17:03:41;3.60;;;2.65;;
50104;SDS011;47690;39.202;-77.198;2023-12-07T17:06:42;2.85;;;2.20;;
50104;SDS011;47690;39.202;-77.198;2023-12-07T17:09:55;6.15;;;3.03;;
50104;SDS011;47690;39.202;-77.198;2023-12-07T17:12:58;2.90;;;2.50;;
50104;SDS011;47690;39.202;-77.198;2023-12-07T17:16:13;3.20;;;2.78;;
50104;SDS011;47690;39.202;-77.198;2023-12-07T17:18:57;3.00;;;2.53;;
50104;SDS011;47690;39.202;-77.198;2023-12-07T17:22:05;2.70;;;2.33;;
50104;SDS011;47690;39.202;-77.198;2023-12-07T17:24:44;3.30;;;2.50;;
50104;SDS011;47690;39.202;-77.198;2023-12-07T17:27:25;3.50;;;2.60;;
50104;SDS011;47690;39.202;-77.198;2023-12-07T17:30:00;2.80;;;2.40;;
50104;SDS011;47690;39.202;-77.198;2023-12-07T17:33:21;2.70;;;2.45;;
50104;SDS011;47690;39.202;-77.198;2023-12-07T17:35:59;2.30;;;2.10;;
50104;SDS011;47690;39.202;-77.198;2023-12-07T17:42:01;2.40;;;2.10;;
50104;SDS011;47690;39.202;-77.198;2023-12-07T17:44:35;2.80;;;2.30;;
50104;SDS011;47690;39.202;-77.198;2023-12-07T17:47:14;3.40;;;2.42;;
50104;SDS011;47690;39.202;-77.198;2023-12-07T17:50:52;2.42;;;2.20;;
50104;SDS011;47690;39.202;-77.198;2023-12-07T17:53:46;2.60;;;2.38;;
50104;SDS011;47690;39.202;-77.198;2023-12-07T17:56:27;2.60;;;2.40;;
50104;SDS011;47690;39.202;-77.198;2023-12-07T17:59:48;3.25;;;2.40;;
50104;SDS011;47690;39.202;-77.198;2023-12-07T18:03:08;2.85;;;2.40;;
50104;SDS011;47690;39.202;-77.198;2023-12-07T18:06:08;3.03;;;2.25;;
50104;SDS011;47690;39.202;-77.198;2023-12-07T18:08:50;2.47;;;2.25;;
50104;SDS011;47690;39.202;-77.198;2023-12-07T18:11:36;2.83;;;2.30;;
50104;SDS011;47690;39.202;-77.198;2023-12-07T18:14:41;3.30;;;2.40;;
50104;SDS011;47690;39.202;-77.198;2023-12-07T18:17:25;2.78;;;2.33;;
50104;SDS011;47690;39.202;-77.198;2023-12-07T18:21:05;2.78;;;2.47;;
50104;SDS011;47690;39.202;-77.198;2023-12-07T18:24:38;2.75;;;2.40;;
50104;SDS011;47690;39.202;-77.198;2023-12-07T18:31:03;2.78;;;2.40;;
50104;SDS011;47690;39.202;-77.198;2023-12-07T18:33:46;2.97;;;2.50;;
50104;SDS011;47690;39.202;-77.198;2023-12-07T18:39:46;2.50;;;2.20;;
50104;SDS011;47690;39.202;-77.198;2023-12-07T18:42:37;2.50;;;2.25;;
50104;SDS011;47690;39.202;-77.198;2023-12-07T18:45:39;2.45;;;2.25;;
50104;SDS011;47690;39.202;-77.198;2023-12-07T18:48:14;3.25;;;2.40;;
50104;SDS011;47690;39.202;-77.198;2023-12-07T18:51:55;2.63;;;2.38;;
50104;SDS011;47690;39.202;-77.198;2023-12-07T18:54:47;2.90;;;2.42;;
50104;SDS011;47690;39.202;-77.198;2023-12-07T18:57:59;2.83;;;2.35;;
50104;SDS011;47690;39.202;-77.198;2023-12-07T19:00:38;4.05;;;2.40;;
50104;SDS011;47690;39.202;-77.198;2023-12-07T19:03:21;2.30;;;2.10;;
50104;SDS011;47690;39.202;-77.198;2023-12-07T19:05:56;3.15;;;2.53;;
50104;SDS011;47690;39.202;-77.198;2023-12-07T19:08:57;3.30;;;2.50;;
50104;SDS011;47690;39.202;-77.198;2023-12-07T19:11:37;3.00;;;2.38;;
50104;SDS011;47690;39.202;-77.198;2023-12-07T19:18:24;2.35;;;2.13;;
50104;SDS011;47690;39.202;-77.198;2023-12-07T19:21:42;3.08;;;2.22;;
50104;SDS011;47690;39.202;-77.198;2023-12-07T19:25:26;2.70;;;2.20;;
50104;SDS011;47690;39.202;-77.198;2023-12-07T19:28:58;2.53;;;2.08;;
50104;SDS011;47690;39.202;-77.198;2023-12-07T19:31:55;2.42;;;2.20;;
50104;SDS011;47690;39.202;-77.198;2023-12-07T19:35:07;2.95;;;2.30;;
50104;SDS011;47690;39.202;-77.198;2023-12-07T19:38:46;3.38;;;2.22;;
50104;SDS011;47690;39.202;-77.198;2023-12-07T19:45:24;2.95;;;2.22;;
50104;SDS011;47690;39.202;-77.198;2023-12-07T19:48:51;3.05;;;2.20;;
50104;SDS011;47690;39.202;-77.198;2023-12-07T19:52:00;2.50;;;2.25;;
50104;SDS011;47690;39.202;-77.198;2023-12-07T19:55:03;2.10;;;1.90;;
50104;SDS011;47690;39.202;-77.198;2023-12-07T19:57:59;3.15;;;2.10;;
50104;SDS011;47690;39.202;-77.198;2023-12-07T20:01:09;2.58;;;2.20;;
50104;SDS011;47690;39.202;-77.198;2023-12-07T20:04:26;2.97;;;2.00;;
50104;SDS011;47690;39.202;-77.198;2023-12-07T20:07:36;2.60;;;2.40;;
50104;SDS011;47690;39.202;-77.198;2023-12-07T20:13:58;3.05;;;2.20;;
50104;SDS011;47690;39.202;-77.198;2023-12-07T20:17:21;2.72;;;2.22;;
50104;SDS011;47690;39.202;-77.198;2023-12-07T20:20:29;3.50;;;2.40;;
50104;SDS011;47690;39.202;-77.198;2023-12-07T20:23:51;2.38;;;2.17;;
50104;SDS011;47690;39.202;-77.198;2023-12-07T20:27:54;2.90;;;2.40;;
50104;SDS011;47690;39.202;-77.198;2023-12-07T20:35:55;3.35;;;2.40;;
50104;SDS011;47690;39.202;-77.198;2023-12-07T20:39:07;3.50;;;2.50;;
50104;SDS011;47690;39.202;-77.198;2023-12-07T20:42:39;2.75;;;2.30;;
50104;SDS011;47690;39.202;-77.198;2023-12-07T20:49:12;3.17;;;2.40;;
50104;SDS011;47690;39.202;-77.198;2023-12-07T20:52:41;2.50;;;2.17;;
50104;SDS011;47690;39.202;-77.198;2023-12-07T20:55:57;2.78;;;2.30;;
50104;SDS011;47690;39.202;-77.198;2023-12-07T20:59:32;4.20;;;2.25;;
50104;SDS011;47690;39.202;-77.198;2023-12-07T21:02:42;2.78;;;2.33;;
50104;SDS011;47690;39.202;-77.198;2023-12-07T21:09:51;2.90;;;2.28;;
50104;SDS011;47690;39.202;-77.198;2023-12-07T21:13:13;3.85;;;2.60;;
50104;SDS011;47690;39.202;-77.198;2023-12-07T21:20:44;2.92;;;2.20;;
50104;SDS011;47690;39.202;-77.198;2023-12-07T21:23:57;2.47;;;2.17;;
50104;SDS011;47690;39.202;-77.198;2023-12-07T21:27:05;3.75;;;2.30;;
50104;SDS011;47690;39.202;-77.198;2023-12-07T21:30:35;2.45;;;2.25;;
50104;SDS011;47690;39.202;-77.198;2023-12-07T21:33:25;2.60;;;2.20;;
50104;SDS011;47690;39.202;-77.198;2023-12-07T21:37:11;2.80;;;2.30;;
50104;SDS011;47690;39.202;-77.198;2023-12-07T21:40:56;2.28;;;2.00;;
50104;SDS011;47690;39.202;-77.198;2023-12-07T21:44:26;2.20;;;2.00;;